createdAt,value
2019-02-28T00:02:00.786Z,34.40
2019-02-28T00:04:31.887Z,33.07
2019-02-28T00:06:56.812Z,30.23
2019-02-28T00:09:25.663Z,24.90
2019-02-28T00:11:53.312Z,21.67
2019-02-28T00:14:20.599Z,33.03
2019-02-28T00:16:47.643Z,43.20
2019-02-28T00:19:15.438Z,23.40
2019-02-28T00:21:42.794Z,27.47
2019-02-28T00:24:09.820Z,19.80
2019-02-28T00:26:36.515Z,15.13
2019-02-28T00:29:03.310Z,35.00
2019-02-28T00:31:30.237Z,29.03
2019-02-28T00:33:57.237Z,38.13
2019-02-28T00:36:24.277Z,35.03
2019-02-28T00:38:51.509Z,34.70
2019-02-28T00:41:18.530Z,36.00
2019-02-28T00:43:45.638Z,28.70
2019-02-28T00:46:12.312Z,34.37
2019-02-28T00:48:39.582Z,32.27
2019-02-28T00:51:06.576Z,36.17
2019-02-28T00:53:37.400Z,34.00
2019-02-28T00:56:03.902Z,37.87
2019-02-28T00:58:30.583Z,41.43
2019-02-28T01:00:57.619Z,34.40
2019-02-28T01:03:27.435Z,37.83
2019-02-28T01:05:54.551Z,35.67
2019-02-28T01:08:22.227Z,34.07
2019-02-28T01:10:49.459Z,35.20
2019-02-28T01:13:17.008Z,37.97
2019-02-28T01:15:45.726Z,23.07
2019-02-28T01:18:13.884Z,36.13
2019-02-28T01:20:40.654Z,32.80
2019-02-28T01:23:07.930Z,33.27
2019-02-28T01:25:37.180Z,25.67
2019-02-28T01:28:04.906Z,37.77
2019-02-28T01:30:31.817Z,33.67
2019-02-28T01:32:58.482Z,24.17
2019-02-28T01:35:26.189Z,21.87
2019-02-28T01:37:53.956Z,28.07
2019-02-28T01:40:20.889Z,34.70
2019-02-28T01:42:48.206Z,37.20
2019-02-28T01:45:15.177Z,28.27
2019-02-28T01:47:42.322Z,34.30
2019-02-28T01:50:10.414Z,32.13
2019-02-28T01:52:37.216Z,23.15
2019-02-28T01:55:06.309Z,31.93
2019-02-28T01:57:35.222Z,33.97
2019-02-28T02:00:02.277Z,31.77
2019-02-28T02:02:29.906Z,37.00
2019-02-28T02:04:57.160Z,35.80
2019-02-28T02:07:24.979Z,32.87
2019-02-28T02:09:52.771Z,29.40
2019-02-28T02:12:20.593Z,35.57
2019-02-28T02:14:48.061Z,32.80
2019-02-28T02:17:14.989Z,37.77
2019-02-28T02:19:42.045Z,33.37
2019-02-28T02:22:10.228Z,35.27
2019-02-28T02:24:37.292Z,36.20
2019-02-28T02:27:04.603Z,38.90
2019-02-28T02:29:32.386Z,36.67
2019-02-28T02:32:02.383Z,33.60
2019-02-28T02:34:30.021Z,27.50
2019-02-28T02:36:57.508Z,39.30
2019-02-28T02:39:25.395Z,35.43
2019-02-28T02:41:52.048Z,33.17
2019-02-28T02:44:19.369Z,30.25
2019-02-28T02:46:46.351Z,26.77
2019-02-28T02:49:18.567Z,36.97
2019-02-28T02:51:49.056Z,28.23
2019-02-28T02:54:17.859Z,32.60
2019-02-28T02:56:42.052Z,39.50
2019-02-28T02:59:10.059Z,29.07
2019-02-28T03:01:37.337Z,31.97
2019-02-28T03:04:04.213Z,33.20
2019-02-28T03:06:31.299Z,32.93
2019-02-28T03:08:57.986Z,40.50
2019-02-28T03:11:25.942Z,33.83
2019-02-28T03:13:53.259Z,36.17
2019-02-28T03:16:20.093Z,35.90
2019-02-28T03:18:47.323Z,39.57
2019-02-28T03:21:15.494Z,33.80
2019-02-28T03:23:43.827Z,32.13
2019-02-28T03:26:10.757Z,25.30
2019-02-28T03:28:38.537Z,36.30
2019-02-28T03:31:11.579Z,38.85
2019-02-28T03:33:33.909Z,23.05
2019-02-28T03:36:00.818Z,38.00
2019-02-28T03:38:28.766Z,31.57
2019-02-28T03:40:55.975Z,35.68
2019-02-28T03:43:23.299Z,38.13
2019-02-28T03:45:51.110Z,39.83
2019-02-28T03:48:18.071Z,40.38
2019-02-28T03:50:44.759Z,40.08
2019-02-28T03:53:12.157Z,41.20
2019-02-28T03:55:40.788Z,55.00
2019-02-28T03:58:07.958Z,42.53
2019-02-28T04:00:36.072Z,38.10
2019-02-28T04:03:04.530Z,29.35
2019-02-28T04:05:31.243Z,37.60
2019-02-28T04:07:57.904Z,41.60
2019-02-28T04:10:25.238Z,44.65
2019-02-28T04:12:52.297Z,25.97
2019-02-28T04:15:19.997Z,44.50
2019-02-28T04:17:46.871Z,32.98
2019-02-28T04:20:14.185Z,34.15
2019-02-28T04:22:41.339Z,37.95
2019-02-28T04:25:10.146Z,37.90
2019-02-28T04:27:40.233Z,41.60
2019-02-28T04:30:08.866Z,39.50
2019-02-28T04:32:35.636Z,39.80
2019-02-28T04:35:04.153Z,30.72
2019-02-28T04:37:31.407Z,37.15
2019-02-28T04:39:58.558Z,45.65
2019-02-28T04:42:25.262Z,41.25
2019-02-28T04:44:52.628Z,36.73
2019-02-28T04:47:19.262Z,37.05
2019-02-28T04:49:46.518Z,30.92
2019-02-28T04:52:14.291Z,42.25
2019-02-28T04:54:40.982Z,42.65
2019-02-28T04:57:08.221Z,42.78
2019-02-28T04:59:36.339Z,29.55
2019-02-28T05:02:03.506Z,41.58
2019-02-28T05:04:33.192Z,45.58
2019-02-28T05:06:59.387Z,43.80
2019-02-28T05:09:26.191Z,36.35
2019-02-28T05:11:52.991Z,20.88
2019-02-28T05:14:23.379Z,34.48
2019-02-28T05:16:48.465Z,46.65
2019-02-28T05:19:16.422Z,43.50
2019-02-28T05:21:43.100Z,34.98
2019-02-28T05:24:09.809Z,28.20
2019-02-28T05:26:36.518Z,38.70
2019-02-28T05:29:04.402Z,28.38
2019-02-28T05:31:31.307Z,38.53
2019-02-28T05:33:58.559Z,32.67
2019-02-28T05:36:25.500Z,48.52
2019-02-28T05:38:53.615Z,17.25
2019-02-28T05:41:22.506Z,28.42
2019-02-28T05:43:49.968Z,46.95
2019-02-28T05:46:17.017Z,45.03
2019-02-28T05:48:44.554Z,44.55
2019-02-28T05:51:12.126Z,45.50
2019-02-28T05:53:41.330Z,42.30
2019-02-28T05:56:07.462Z,31.75
2019-02-28T05:58:34.488Z,43.45
2019-02-28T06:01:01.147Z,44.55
2019-02-28T06:03:30.368Z,31.60
2019-02-28T06:05:57.770Z,37.70
2019-02-28T06:08:24.809Z,37.88
2019-02-28T06:10:56.060Z,42.03
2019-02-28T06:13:21.886Z,32.98
2019-02-28T06:15:49.022Z,30.62
2019-02-28T06:18:16.318Z,35.45
2019-02-28T06:20:43.734Z,43.63
2019-02-28T06:23:10.425Z,49.75
2019-02-28T06:25:38.183Z,54.88
2019-02-28T06:28:04.881Z,30.15
2019-02-28T06:30:33.227Z,49.48
2019-02-28T06:33:00.741Z,45.20
2019-02-28T06:35:28.177Z,43.02
2019-02-28T06:37:54.865Z,62.65
2019-02-28T06:40:22.632Z,55.55
2019-02-28T06:42:50.038Z,37.58
2019-02-28T06:45:17.723Z,48.02
2019-02-28T06:47:48.604Z,84.35
2019-02-28T06:50:15.088Z,53.42
2019-02-28T06:52:42.494Z,44.50
2019-02-28T06:55:12.591Z,57.27
2019-02-28T06:57:41.133Z,51.70
2019-02-28T07:00:10.432Z,46.63
2019-02-28T07:02:37.219Z,33.83
2019-02-28T07:05:04.795Z,35.58
2019-02-28T07:07:32.200Z,34.43
2019-02-28T07:09:59.541Z,62.08
2019-02-28T07:12:29.814Z,29.85
2019-02-28T07:14:55.347Z,62.93
2019-02-28T07:17:22.416Z,61.18
2019-02-28T07:19:49.331Z,44.95
2019-02-28T07:22:19.609Z,58.35
2019-02-28T07:24:46.127Z,32.50
2019-02-28T07:27:13.342Z,56.53
2019-02-28T07:29:42.664Z,35.23
2019-02-28T07:32:09.757Z,61.73
2019-02-28T07:34:36.958Z,30.95
2019-02-28T07:37:03.750Z,67.00
2019-02-28T07:39:31.477Z,58.85
2019-02-28T07:41:58.793Z,57.98
2019-02-28T07:44:28.026Z,44.35
2019-02-28T07:46:55.686Z,46.23
2019-02-28T07:49:22.375Z,46.48
2019-02-28T07:51:49.403Z,40.43
2019-02-28T07:54:20.414Z,46.73
2019-02-28T07:56:47.561Z,54.25
2019-02-28T07:59:14.909Z,68.80
2019-02-28T08:01:42.057Z,58.13
2019-02-28T08:04:09.097Z,53.87
2019-02-28T08:06:39.232Z,37.23
2019-02-28T08:09:20.072Z,53.65
2019-02-28T08:11:47.586Z,45.65
2019-02-28T08:14:14.609Z,52.50
2019-02-28T08:16:41.930Z,41.90
2019-02-28T08:19:09.150Z,41.95
2019-02-28T08:21:36.786Z,46.63
2019-02-28T08:24:05.375Z,51.45
2019-02-28T08:26:33.357Z,43.35
2019-02-28T08:29:00.641Z,54.18
2019-02-28T08:31:28.296Z,32.88
2019-02-28T08:33:57.775Z,51.13
2019-02-28T08:36:26.128Z,48.92
2019-02-28T08:38:53.693Z,46.85
2019-02-28T08:41:22.570Z,44.30
2019-02-28T08:43:50.137Z,46.18
2019-02-28T08:46:17.298Z,45.30
2019-02-28T08:48:44.608Z,38.88
2019-02-28T08:51:12.409Z,43.75
2019-02-28T08:53:40.376Z,32.40
2019-02-28T08:56:07.412Z,38.75
2019-02-28T08:58:37.752Z,40.85
2019-02-28T09:01:06.541Z,38.78
2019-02-28T09:03:33.458Z,43.50
2019-02-28T09:06:04.195Z,38.05
2019-02-28T09:08:31.166Z,41.33
2019-02-28T09:10:58.648Z,26.75
2019-02-28T09:13:25.646Z,35.25
2019-02-28T09:15:53.013Z,36.48
2019-02-28T09:18:19.721Z,30.25
2019-02-28T09:20:47.115Z,28.15
2019-02-28T09:23:15.185Z,30.25
2019-02-28T09:25:43.523Z,28.80
2019-02-28T09:28:13.018Z,30.12
2019-02-28T09:30:41.049Z,23.40
2019-02-28T09:33:08.063Z,28.00
2019-02-28T09:35:35.770Z,31.43
2019-02-28T09:38:06.272Z,26.33
2019-02-28T09:40:31.783Z,29.00
2019-02-28T09:42:59.459Z,23.77
2019-02-28T09:45:26.165Z,25.00
2019-02-28T09:47:52.955Z,34.03
2019-02-28T09:50:22.477Z,24.05
2019-02-28T09:52:49.419Z,21.70
2019-02-28T09:55:17.222Z,23.05
2019-02-28T09:57:44.918Z,16.37
2019-02-28T10:00:14.814Z,20.90
2019-02-28T10:02:44.050Z,22.07
2019-02-28T10:05:11.779Z,16.85
2019-02-28T10:07:38.761Z,19.10
2019-02-28T10:10:08.703Z,19.95
2019-02-28T10:12:35.681Z,18.75
2019-02-28T10:15:07.039Z,19.82
2019-02-28T10:17:34.258Z,21.37
2019-02-28T10:20:01.421Z,19.23
2019-02-28T10:22:28.887Z,18.80
2019-02-28T10:24:56.552Z,20.87
2019-02-28T10:27:26.892Z,13.72
2019-02-28T10:29:52.394Z,19.80
2019-02-28T10:32:19.366Z,21.40
2019-02-28T10:34:47.321Z,19.70
2019-02-28T10:37:15.162Z,18.60
2019-02-28T10:39:43.818Z,21.75
2019-02-28T10:42:11.929Z,19.27
2019-02-28T10:44:39.889Z,18.33
2019-02-28T10:47:06.991Z,18.67
2019-02-28T10:49:33.777Z,17.60
2019-02-28T10:52:01.432Z,64.47
2019-02-28T10:54:29.218Z,15.83
2019-02-28T10:56:56.448Z,18.13
2019-02-28T10:59:24.395Z,15.07
2019-02-28T11:01:52.186Z,16.43
2019-02-28T11:04:19.759Z,17.47
2019-02-28T11:06:46.974Z,18.03
2019-02-28T11:09:21.814Z,17.40
2019-02-28T11:11:48.305Z,12.90
2019-02-28T11:14:15.683Z,8.40
2019-02-28T11:16:42.967Z,13.07
2019-02-28T11:19:10.179Z,9.80
2019-02-28T11:21:37.669Z,14.77
2019-02-28T11:24:04.715Z,18.02
2019-02-28T11:26:32.796Z,14.70
2019-02-28T11:29:03.159Z,16.03
2019-02-28T11:31:29.389Z,15.20
2019-02-28T11:33:57.122Z,15.03
2019-02-28T11:36:25.297Z,16.90
2019-02-28T11:38:52.526Z,11.23
2019-02-28T11:41:21.641Z,11.93
2019-02-28T11:43:48.435Z,17.90
2019-02-28T11:46:15.700Z,8.87
2019-02-28T11:48:42.869Z,14.40
2019-02-28T11:51:09.659Z,18.17
2019-02-28T11:53:40.402Z,16.90
2019-02-28T11:56:05.742Z,17.07
2019-02-28T11:58:33.097Z,16.20
2019-02-28T12:01:02.255Z,16.23
2019-02-28T12:03:31.830Z,16.97
2019-02-28T12:05:57.918Z,18.13
2019-02-28T12:08:24.690Z,12.30
2019-02-28T12:10:51.992Z,16.53
2019-02-28T12:13:20.578Z,16.57
2019-02-28T12:15:47.795Z,15.80
2019-02-28T12:18:14.822Z,10.53
2019-02-28T12:20:41.499Z,14.70
2019-02-28T12:23:08.927Z,8.73
2019-02-28T12:25:35.691Z,8.90
2019-02-28T12:28:06.358Z,14.30
2019-02-28T12:30:32.791Z,10.33
2019-02-28T12:33:00.477Z,13.50
2019-02-28T12:35:27.723Z,15.23
2019-02-28T12:37:55.050Z,14.67
2019-02-28T12:40:24.233Z,9.00
2019-02-28T12:42:51.342Z,12.63
2019-02-28T12:45:25.173Z,11.60
2019-02-28T12:47:51.908Z,10.28
2019-02-28T12:50:19.432Z,14.75
2019-02-28T12:52:49.890Z,14.50
2019-02-28T12:55:18.073Z,12.90
2019-02-28T12:57:46.298Z,14.47
2019-02-28T13:00:25.097Z,6.77
2019-02-28T13:02:52.658Z,7.07
2019-02-28T13:05:19.950Z,14.67
2019-02-28T13:07:48.582Z,13.38
2019-02-28T13:10:17.122Z,14.45
2019-02-28T13:12:48.829Z,12.43
2019-02-28T13:15:15.335Z,13.13
2019-02-28T13:17:42.745Z,11.20
2019-02-28T13:20:12.950Z,11.73
2019-02-28T13:22:40.918Z,7.77
2019-02-28T13:25:08.485Z,14.87
2019-02-28T13:27:35.832Z,12.70
2019-02-28T13:30:05.496Z,13.43
2019-02-28T13:32:38.288Z,12.10
2019-02-28T13:35:07.442Z,9.90
2019-02-28T13:37:33.694Z,13.30
2019-02-28T13:40:04.341Z,14.60
2019-02-28T13:42:30.838Z,12.10
2019-02-28T13:44:57.529Z,9.30
2019-02-28T13:47:24.718Z,11.37
2019-02-28T13:49:52.429Z,9.27
2019-02-28T13:52:20.914Z,12.27
2019-02-28T13:54:48.114Z,15.20
2019-02-28T13:57:15.423Z,16.63
2019-02-28T13:59:42.118Z,11.90
2019-02-28T14:02:09.732Z,11.90
2019-02-28T14:04:36.646Z,13.27
2019-02-28T14:07:03.880Z,9.30
2019-02-28T14:09:31.330Z,14.03
2019-02-28T14:11:58.674Z,14.20
2019-02-28T14:14:26.495Z,14.10
2019-02-28T14:16:53.634Z,13.13
2019-02-28T14:19:21.467Z,6.87
2019-02-28T14:21:49.429Z,12.70
2019-02-28T14:24:16.743Z,10.20
2019-02-28T14:26:46.542Z,14.57
2019-02-28T14:29:13.143Z,12.90
2019-02-28T14:31:40.344Z,10.47
2019-02-28T14:34:07.735Z,14.77
2019-02-28T14:36:35.322Z,15.07
2019-02-28T14:39:04.694Z,15.63
2019-02-28T14:41:34.100Z,12.50
2019-02-28T14:44:01.451Z,10.70
2019-02-28T14:46:29.226Z,10.20
2019-02-28T14:48:57.191Z,13.17
2019-02-28T14:51:25.485Z,12.30
2019-02-28T14:53:52.625Z,13.20
2019-02-28T14:56:19.318Z,8.97
2019-02-28T14:58:46.289Z,11.03
2019-02-28T15:01:16.801Z,14.07
2019-02-28T15:03:42.704Z,10.35
2019-02-28T15:06:09.896Z,9.83
2019-02-28T15:08:36.967Z,10.20
2019-02-28T15:11:06.591Z,12.23
2019-02-28T15:13:34.280Z,9.73
2019-02-28T15:16:01.663Z,9.67
2019-02-28T15:18:28.894Z,3.90
2019-02-28T15:20:55.573Z,11.60
2019-02-28T15:23:22.719Z,13.07
2019-02-28T15:25:50.768Z,8.63
2019-02-28T15:28:18.783Z,9.50
2019-02-28T15:30:45.450Z,10.40
2019-02-28T15:33:12.970Z,11.70
2019-02-28T15:35:40.603Z,12.50
2019-02-28T15:38:09.100Z,11.03
2019-02-28T15:40:37.283Z,10.73
2019-02-28T15:43:04.508Z,9.60
2019-02-28T15:45:31.285Z,8.80
2019-02-28T15:47:59.152Z,9.98
2019-02-28T15:50:26.826Z,11.40
2019-02-28T15:52:55.047Z,11.13
2019-02-28T15:55:22.962Z,8.40
2019-02-28T15:57:49.932Z,11.60
2019-02-28T16:00:22.105Z,10.37
2019-02-28T16:02:48.774Z,10.60
2019-02-28T16:05:16.781Z,9.20
2019-02-28T16:07:43.653Z,8.63
2019-02-28T16:10:12.648Z,9.77
2019-02-28T16:12:39.717Z,7.23
2019-02-28T16:15:08.735Z,8.80
2019-02-28T16:17:36.817Z,8.30
2019-02-28T16:20:05.791Z,6.67
2019-02-28T16:22:33.034Z,9.13
2019-02-28T16:25:00.831Z,8.73
2019-02-28T16:27:29.611Z,9.33
2019-02-28T16:29:58.686Z,9.43
2019-02-28T16:32:25.383Z,9.57
2019-02-28T16:34:52.045Z,4.23
2019-02-28T16:37:18.727Z,7.50
2019-02-28T16:39:49.104Z,9.53
2019-02-28T16:42:17.545Z,6.87
2019-02-28T16:44:44.478Z,7.60
2019-02-28T16:47:11.615Z,11.97
2019-02-28T16:49:41.350Z,10.93
2019-02-28T16:52:07.929Z,7.45
2019-02-28T16:54:35.787Z,9.67
2019-02-28T16:57:02.575Z,11.57
2019-02-28T16:59:31.725Z,8.13
2019-02-28T17:01:59.541Z,9.00
2019-02-28T17:04:26.562Z,6.07
2019-02-28T17:06:55.507Z,10.17
2019-02-28T17:09:30.319Z,8.48
2019-02-28T17:12:06.379Z,12.13
2019-02-28T17:14:33.911Z,11.17
2019-02-28T17:17:14.111Z,10.57
2019-02-28T17:19:41.810Z,11.60
2019-02-28T17:22:09.158Z,11.10
2019-02-28T17:24:36.487Z,11.20
2019-02-28T17:27:22.964Z,11.53
2019-02-28T17:30:09.422Z,14.23
2019-02-28T17:32:36.694Z,12.73
2019-02-28T17:35:05.595Z,12.10
2019-02-28T17:37:32.395Z,10.83
2019-02-28T17:39:59.466Z,10.00
2019-02-28T17:42:26.469Z,11.30
2019-02-28T17:45:01.845Z,9.53
2019-02-28T17:48:12.725Z,10.00
2019-02-28T17:50:51.350Z,9.37
2019-02-28T17:53:32.652Z,11.80
2019-02-28T17:56:32.120Z,9.53
2019-02-28T17:59:39.242Z,10.00
2019-02-28T18:02:46.742Z,10.50
2019-02-28T18:05:50.711Z,11.33
2019-02-28T18:08:27.200Z,11.90
2019-02-28T18:11:09.305Z,9.13
2019-02-28T18:14:05.812Z,10.60
2019-02-28T18:17:09.979Z,11.27
2019-02-28T18:20:28.978Z,11.90
2019-02-28T18:23:41.794Z,9.85
2019-02-28T18:26:52.396Z,8.88
2019-02-28T18:30:01.146Z,10.18
2019-02-28T18:32:33.034Z,18.40
2019-02-28T18:34:58.809Z,18.13
2019-02-28T18:37:25.611Z,18.60
2019-02-28T18:39:52.981Z,21.80
2019-02-28T18:42:20.102Z,14.77
2019-02-28T18:44:47.530Z,9.50
2019-02-28T18:47:14.940Z,10.43
2019-02-28T18:49:42.843Z,13.80
2019-02-28T18:52:20.267Z,13.83
2019-02-28T18:55:05.714Z,119.83
2019-02-28T18:57:40.895Z,16.77
2019-02-28T19:00:20.188Z,10.83
2019-02-28T19:02:49.668Z,7.22
2019-02-28T19:05:23.091Z,12.98
2019-02-28T19:07:59.888Z,12.25
2019-02-28T19:10:32.468Z,14.60
2019-02-28T19:13:01.690Z,14.80
2019-02-28T19:15:28.490Z,23.80
2019-02-28T19:18:01.199Z,14.63
2019-02-28T19:20:33.074Z,7.37
2019-02-28T19:23:04.088Z,18.32
2019-02-28T19:25:36.574Z,23.50
2019-02-28T19:28:04.298Z,12.20
2019-02-28T19:30:32.414Z,7.37
2019-02-28T19:33:02.360Z,15.15
2019-02-28T19:35:36.618Z,11.30
2019-02-28T19:38:12.144Z,10.43
2019-02-28T19:40:50.446Z,14.35
2019-02-28T19:43:20.968Z,8.93
2019-02-28T19:45:48.430Z,9.28
2019-02-28T19:48:15.526Z,10.88
2019-02-28T19:50:46.626Z,8.98
2019-02-28T19:53:18.880Z,9.10
2019-02-28T19:55:48.275Z,11.80
2019-02-28T19:58:21.053Z,11.05
2019-02-28T20:00:59.277Z,12.73
2019-02-28T20:03:41.692Z,10.45
2019-02-28T20:09:04.609Z,7.55
2019-02-28T20:11:33.186Z,10.75
2019-02-28T20:14:00.756Z,6.08
2019-02-28T20:16:28.560Z,10.32
2019-02-28T20:18:55.912Z,5.72
2019-02-28T20:21:23.175Z,5.55
2019-02-28T20:23:51.233Z,9.13
2019-02-28T20:26:19.002Z,11.93
2019-02-28T20:28:45.817Z,8.13
2019-02-28T20:31:12.762Z,10.60
2019-02-28T20:33:40.206Z,9.13
2019-02-28T20:36:07.026Z,10.20
2019-02-28T20:38:34.415Z,8.78
2019-02-28T20:41:01.613Z,9.85
2019-02-28T20:43:28.415Z,8.33
2019-02-28T20:45:55.991Z,10.25
2019-02-28T20:48:23.019Z,6.95
2019-02-28T20:50:50.149Z,9.73
2019-02-28T20:53:17.617Z,10.48
2019-02-28T20:55:44.653Z,9.55
2019-02-28T20:58:12.238Z,9.38
2019-02-28T21:00:39.916Z,145.72
2019-02-28T21:03:07.086Z,13.60
2019-02-28T21:05:34.197Z,13.13
2019-02-28T21:08:01.249Z,15.77
2019-02-28T21:10:28.592Z,10.33
2019-02-28T21:12:55.889Z,9.10
2019-02-28T21:15:24.671Z,8.80
2019-02-28T21:17:51.578Z,9.90
2019-02-28T21:20:19.025Z,9.90
2019-02-28T21:22:45.842Z,9.73
2019-02-28T21:25:12.806Z,10.55
2019-02-28T21:27:39.583Z,10.00
2019-02-28T21:30:15.442Z,8.63
2019-02-28T21:32:42.790Z,12.33
2019-02-28T21:35:10.373Z,10.23
2019-02-28T21:37:37.701Z,10.75
2019-02-28T21:40:06.934Z,9.55
2019-02-28T21:42:35.958Z,9.78
2019-02-28T21:45:04.277Z,9.73
2019-02-28T21:47:32.889Z,9.40
2019-02-28T21:50:00.436Z,9.30
2019-02-28T21:52:28.321Z,17.82
2019-02-28T21:54:55.558Z,9.53
2019-02-28T21:57:22.211Z,9.90
2019-02-28T21:59:49.679Z,7.83
2019-02-28T22:02:16.379Z,14.98
2019-02-28T22:04:44.142Z,14.73
2019-02-28T22:07:11.598Z,10.75
2019-02-28T22:09:38.935Z,14.13
2019-02-28T22:12:05.976Z,11.60
2019-02-28T22:14:32.650Z,11.33
2019-02-28T22:16:59.630Z,10.88
2019-02-28T22:19:27.160Z,13.83
2019-02-28T22:21:54.802Z,11.75
2019-02-28T22:24:22.055Z,14.23
2019-02-28T22:26:49.395Z,18.23
2019-02-28T22:29:16.840Z,11.17
2019-02-28T22:32:02.547Z,9.85
2019-02-28T22:34:49.207Z,10.18
2019-02-28T22:37:15.999Z,17.55
2019-02-28T22:39:42.780Z,10.63
2019-02-28T22:42:09.478Z,11.03
2019-02-28T22:44:36.507Z,11.30
2019-02-28T22:47:03.400Z,12.40
2019-02-28T22:49:33.653Z,9.88
2019-02-28T22:52:00.707Z,16.40
2019-02-28T22:54:27.394Z,14.18
2019-02-28T22:56:54.078Z,11.80
2019-02-28T22:59:22.162Z,12.05
2019-02-28T23:01:49.192Z,11.75
2019-02-28T23:04:15.889Z,12.70
2019-02-28T23:06:43.199Z,12.58
2019-02-28T23:09:10.390Z,14.00
2019-02-28T23:11:37.791Z,20.45
2019-02-28T23:14:05.194Z,12.98
2019-02-28T23:16:32.124Z,13.03
2019-02-28T23:18:59.760Z,14.47
2019-02-28T23:21:26.891Z,15.32
2019-02-28T23:23:53.612Z,14.80
2019-02-28T23:26:25.052Z,13.60
2019-02-28T23:29:09.106Z,14.38
2019-02-28T23:32:06.581Z,12.10
2019-02-28T23:34:39.930Z,12.53
2019-02-28T23:37:07.081Z,13.20
2019-02-28T23:39:34.654Z,16.80
2019-02-28T23:42:02.605Z,13.85
2019-02-28T23:44:30.308Z,15.23
2019-02-28T23:46:57.716Z,15.48
2019-02-28T23:49:24.445Z,16.90
2019-02-28T23:51:51.370Z,14.28
2019-02-28T23:54:18.374Z,14.93
2019-02-28T23:56:45.682Z,16.07
2019-02-28T23:59:13.354Z,24.82
